Tiempo atmosférico en la estación meteorológica de Forua, Bizkaia (45 m.)



Fecha
DESCASC
Temp. máxima en grados centígrados (hora)
DESCASC
Temp. mínima en grados centígrados (hora)
DESCASC
Temp. media en grados centígrados
DESCASC
Racha de viento máxima en m/sg (hora)
DESCASC
Velocidad máxima media en intervalos de 10 minutos(hora)
DESCASC
Precipitaciones diarias en mm
DESCASC
Precipitaciones de 00:00 a 06:00 en mm
DESCASC
Precipitaciones de 06:00 a 12:00 en mm
DESCASC
Precipitaciones de 12:00 a 18:00 en mm
DESCASC
Precipitaciones de 18:00 a 24:00 en mm
DESCASC
14-12-2019 17.7 (14:10) 10.8 (02:50) 14.3 9.44 (13:40) 6.39 (14:10) 0 0 0 0 0
13-12-2019 16.9 (13:40) 13.8 (23:59) 15.3 25.56 (08:40) 11.11 (12:00) 8 4.8 0 3.2 0
12-12-2019 14.1 (21:50) 7.7 (06:40) 10.9 20.28 (20:40) 6.11 (21:00) 84.8 15.2 3 34 32.6
11-12-2019 12.5 (15:00) 8.7 (00:00) 10.6 15 (09:20) 7.78 (09:20) 21 0 4.8 1.4 14.8
10-12-2019 16.1 (14:00) 6.7 (00:00) 11.4 4.17 (12:40) 2.5 (10:00) 0.2 0 0 0.2 0
09-12-2019 13.3 (12:40) 9.4 (00:00) 11.3 18.33 (06:50) 8.89 (10:30) 2.6 0 2.6 0 0
08-12-2019 13 (17:40) 5.9 (00:00) 9.5 10.28 (17:10) 3.89 (17:10) 5.8 0 0.2 5.6 0
07-12-2019 16.6 (15:00) 5 (00:00) 10.8 4.44 (01:10) 3.61 (01:10) 0 0 0 0 0
06-12-2019 16.6 (14:40) 3.1 (00:00) 9.9 5 (13:10) 3.06 (13:20) 0.2 0.2 0 0 0
05-12-2019 13.7 (15:40) 6.9 (00:00) 10.3 4.72 (15:50) 2.78 (16:20) 0 0 0 0 0
04-12-2019 12 (15:40) -0.2 (00:00) 5.9 6.39 (18:10) 3.89 (17:30) 0.2 0 0.2 0 0
03-12-2019 9.4 (16:00) 1.2 (00:00) 5.3 5.56 (00:20) 2.78 (00:30) 0 0 0 0 0
02-12-2019 10.6 (08:20) 7.9 (00:00) 9.3 10.28 (09:50) 5.83 (09:50) 10.2 10 0.2 0 0
01-12-2019 14.5 (14:30) 4.5 (00:00) 9.5 3.61 (02:50) 2.78 (07:50) 3.2 0.2 0 0 3
30-11-2019 17.6 (09:30) 6.1 (00:00) 11.9 13.06 (10:50) 6.39 (08:40) 0.2 0 0 0 0.2
29-11-2019 18.3 (15:00) 7.8 (00:00) 13 6.39 (12:10) 3.61 (12:40) 0.4 0.4 0 0 0
28-11-2019 13.6 (13:40) 8.6 (00:00) 11.1 6.67 (04:40) 3.33 (04:50) 8.6 1 1 5.8 0.8
27-11-2019 15.8 (14:00) 8.6 (00:00) 12.2 9.44 (16:50) 5 (16:50) 2 0 0 1.8 0.2
26-11-2019 19.9 (12:30) 8.6 (00:00) 14.3 15.56 (21:30) 7.22 (21:30) 1.4 0 0 0 1.4
25-11-2019 17 (12:50) 9.8 (00:00) 13.4 6.39 (05:10) 3.89 (05:10) 0.2 0.2 0 0 0
24-11-2019 13.7 (15:20) 8.7 (00:00) 11.2 9.72 (04:40) 5.28 (10:20) 19.4 13.4 2.4 0 3.6
23-11-2019 14.5 (00:00) 9.6 (00:00) 12.1 29.17 (08:10) 11.39 (09:40) 65.8 14 39.4 6.6 5.8
22-11-2019 15.5 (12:00) 8 (00:00) 11.8 15.28 (14:30) 8.89 (15:30) 0.2 0 0 0.2 0
21-11-2019 16.6 (15:20) 5.4 (00:00) 11 9.44 (12:10) 5.83 (03:10) 0 0 0 0 0
20-11-2019 14.4 (13:30) 3.9 (00:00) 9.1 10 (14:20) 6.94 (13:40) 0 0 0 0 0
19-11-2019 14 (15:30) 4.3 (00:00) 9.2 3.33 (09:00) 2.5 (22:40) 1 0.8 0.2 0 0
18-11-2019 10.8 (15:00) 5.6 (00:00) 8.2 5.28 (05:30) 2.78 (04:50) 6.6 2.8 0.6 1.6 1.6
17-11-2019 10.9 (15:00) 6.8 (00:00) 8.8 9.17 (16:20) 4.17 (12:30) 20.6 2.2 3.2 8.8 6.4
16-11-2019 8.7 (15:10) 1.9 (00:00) 5.3 12.78 (21:40) 6.11 (21:40) 38.2 0 18.2 16 4
15-11-2019 11.1 (13:30) 4.1 (00:00) 7.6 11.67 (09:50) 7.22 (16:10) 22 5.8 7.8 3.4 5

Gráficas

Temp. máximas Temp. mínimas Temp. medias Precipitaciones Rachas de viento máximas Velocidades máximas media en intervalos de 10 minutos

Datos horarios

Fecha y hora oficial Temperatura (ºC) Velocidad del viento (km/h) Dirección del viento Racha (km/h) Dirección de racha Precipitación (mm) Presión (hPa) Tendencia (hPa) Humedad (%)
2019-12-14 23:00:00 14.8 11 Sudoeste 21 Sudoeste 0 -- -- 64
2019-12-14 22:00:00 14.9 11 Sudoeste 21 Sudoeste 0 -- -- 64
2019-12-14 21:00:00 14.6 10 Sudoeste 22 Oeste 0 -- -- 64
2019-12-14 20:00:00 14.5 14 Oeste 25 Sudoeste 0 -- -- 65
2019-12-14 19:00:00 14.8 10 Sudoeste 20 Oeste 0 -- -- 63
2019-12-14 18:00:00 15.4 10 Sudoeste 28 Oeste 0 -- -- 61
2019-12-14 17:00:00 16.1 15 Oeste 28 Oeste 0 -- -- 60
2019-12-14 16:00:00 17 16 Oeste 32 Oeste 0 -- -- 59
2019-12-14 15:00:00 17 22 Oeste 33 Oeste 0 -- -- 58
2019-12-14 14:00:00 17.5 19 Oeste 34 Oeste 0 -- -- 60
2019-12-14 13:00:00 16.8 17 Oeste 29 Oeste 0 -- -- 61
2019-12-14 12:00:00 16.6 13 Oeste 26 Oeste 0 -- -- 62
2019-12-14 11:00:00 15.5 13 Oeste 25 Oeste 0 -- -- 64
2019-12-14 10:00:00 13.6 15 Oeste 27 Oeste 0 -- -- 71
2019-12-14 09:00:00 12.4 6 Sudoeste 14 Sudoeste 0 -- -- 75
2019-12-14 08:00:00 12.4 5 Sur 10 Sudoeste 0 -- -- 75
2019-12-14 07:00:00 12.4 3 Sur 8 Sudoeste 0 -- -- 77
2019-12-14 06:00:00 12.5 5 Sudoeste 8 Sur 0 -- -- 79
2019-12-14 05:00:00 11.9 4 Sur 13 Oeste 0 -- -- 83
2019-12-14 04:00:00 11.5 9 Oeste 14 Oeste 0 -- -- 91
2019-12-14 03:00:00 10.8 12 Oeste 14 Oeste 0 -- -- 94
2019-12-14 02:00:00 11.4 8 Oeste 13 Oeste 0 -- -- 89
2019-12-14 01:00:00 13.1 6 Oeste 21 Oeste 0 -- -- 82
2019-12-14 00:00:00 13.8 8 Oeste 26 Oeste 0 -- -- 79
2019-12-13 23:00:00 14.4 10 Sudoeste 31 Noroeste 0 -- -- 77
2019-12-13 22:00:00 15 7 Norte 47 Norte 0 -- -- 75
2019-12-13 21:00:00 15.2 15 Norte 45 Norte 0 -- -- 76
2019-12-13 20:00:00 15.1 17 Norte 47 Norte 0 -- -- 79
2019-12-13 19:00:00 14.9 10 Nordeste 53 Nordeste 0 -- -- 83
2019-12-13 18:00:00 15 10 Nordeste 50 Noroeste 0.2 -- -- 86
2019-12-13 17:00:00 14.5 11 Noroeste 57 Norte 2.6 -- -- 91
2019-12-13 16:00:00 15.1 19 Norte 62 Norte 0.4 -- -- 88
2019-12-13 15:00:00 16.3 23 Nordeste 56 Norte 0 -- -- 79
2019-12-13 14:00:00 16.8 27 Norte 72 Norte 0 -- -- 76
2019-12-13 13:00:00 16.2 32 Nordeste 79 Nordeste 0 -- -- 79
2019-12-13 12:00:00 16 40 Nordeste 78 Nordeste 0 -- -- 81
2019-12-13 11:00:00 16.1 35 Nordeste 79 Noroeste 0 -- -- 80
2019-12-13 10:00:00 15.7 34 Nordeste 78 Norte 0 -- -- 81
2019-12-13 09:00:00 15.7 27 Norte 92 Norte 0 -- -- 81
2019-12-13 08:00:00 15.4 32 Norte 88 Nordeste 0 -- -- 83
2019-12-13 07:00:00 15.9 27 Nordeste 77 Nordeste 0 -- -- 79
2019-12-13 06:00:00 15.7 30 Norte 79 Norte 0 -- -- 81
2019-12-13 05:00:00 15.3 26 Norte 82 Norte 0.4 -- -- 85
2019-12-13 04:00:00 15.5 24 Nordeste 70 Norte 0.2 -- -- 84
2019-12-13 03:00:00 14.6 23 Norte 77 Norte 2.8 -- -- 91
2019-12-13 02:00:00 14.8 22 Nordeste 57 Noroeste 0.4 -- -- 89
2019-12-13 01:00:00 14.5 26 Norte 66 Nordeste 1 -- -- 91
2019-12-13 00:00:00 14.1 21 Norte 55 Noroeste 3.2 -- -- 95
2019-12-12 23:00:00 14.1 20 Norte 54 Noroeste 5.2 -- -- 95
2019-12-12 22:00:00 14.1 16 Norte 51 Noroeste 5.6 -- -- 95
2019-12-12 21:00:00 14 22 Norte 73 Norte 4.6 -- -- 95
2019-12-12 20:00:00 13.6 12 Nordeste 44 Norte 4.4 -- -- 98
2019-12-12 19:00:00 12.4 8 Noroeste 36 Norte 9.6 -- -- 100
2019-12-12 18:00:00 9.7 13 Oeste 27 Sudoeste 12.8 -- -- 100
2019-12-12 17:00:00 9.5 15 Oeste 32 Oeste 9.4 -- -- 98
2019-12-12 16:00:00 9.7 17 Oeste 36 Oeste 4.8 -- -- 95
2019-12-12 15:00:00 9.8 19 Oeste 39 Oeste 3.2 -- -- 93
2019-12-12 14:00:00 9.4 12 Sudoeste 23 Sudoeste 2.8 -- -- 96
2019-12-12 13:00:00 9.5 9 Sudoeste 19 Oeste 1 -- -- 95
2019-12-12 12:00:00 9.2 7 Sudoeste 15 Oeste 0 -- -- 94
2019-12-12 11:00:00 8.9 9 Sudoeste 29 Oeste 0.8 -- -- 95
2019-12-12 10:00:00 8.7 9 Sudoeste 21 Sudoeste 0.6 -- -- 95
2019-12-12 09:00:00 8.2 7 Sudoeste 15 Oeste 0.4 -- -- 96
2019-12-12 08:00:00 7.8 8 Oeste 16 Oeste 0.6 -- -- 99
2019-12-12 07:00:00 7.7 8 Sudoeste 14 Sudoeste 0.6 -- -- 99
2019-12-12 06:00:00 8 9 Sudoeste 15 Sudoeste 2 -- -- 99
2019-12-12 05:00:00 8.3 10 Sudoeste 23 Noroeste 2.4 -- -- 98
2019-12-12 04:00:00 8.6 9 Oeste 21 Oeste 3.6 -- -- 97
2019-12-12 03:00:00 8.6 11 Sudoeste 22 Oeste 1.8 -- -- 98
2019-12-12 02:00:00 8.9 8 Sudoeste 19 Sudoeste 2.2 -- -- 96
2019-12-12 01:00:00 9.3 8 Oeste 25 Oeste 3.2 -- -- 95
2019-12-12 00:00:00 9.7 9 Noroeste 40 Oeste 1.8 -- -- 90
2019-12-11 23:00:00 9.5 16 Oeste 35 Oeste 2.2 -- -- 90
2019-12-11 22:00:00 9.5 9 Norte 47 Noroeste 3.2 -- -- 90
2019-12-11 21:00:00 9.5 12 Oeste 48 Nordeste 3.2 -- -- 87
2019-12-11 20:00:00 10.2 9 Oeste 35 Noroeste 1.8 -- -- 88
2019-12-11 19:00:00 10.1 13 Norte 41 Norte 2.6 -- -- 85
2019-12-11 18:00:00 10.8 12 Oeste 31 Oeste 0 -- -- 67
2019-12-11 17:00:00 11.5 7 Noroeste 30 Noroeste 0 -- -- 62
2019-12-11 16:00:00 12.3 8 Noroeste 35 Norte 0 -- -- 61
2019-12-11 15:00:00 12.5 7 Este 23 Norte 0.2 -- -- 70
2019-12-11 14:00:00 11.3 7 Noroeste 33 Noroeste 0.4 -- -- 81
2019-12-11 13:00:00 10.8 9 Sudoeste 37 Norte 0.8 -- -- 87
2019-12-11 12:00:00 10.1 8 Noroeste 35 Noroeste 0.6 -- -- 88
2019-12-11 11:00:00 10 4 Sudoeste 34 Noroeste 0.2 -- -- 89
2019-12-11 10:00:00 10.1 18 Nordeste 54 Norte 1.4 -- -- 85
2019-12-11 09:00:00 10.7 12 Norte 36 Nordeste 1.8 -- -- 91
2019-12-11 08:00:00 11.6 8 Norte 23 Nordeste 0.8 -- -- 90
2019-12-11 07:00:00 11.5 8 Oeste 17 Oeste 0 -- -- 71
2019-12-11 06:00:00 11.4 6 Oeste 19 Sudoeste 0 -- -- 67
2019-12-11 05:00:00 9.7 6 Sudoeste 12 Sur 0 -- -- 78
2019-12-11 04:00:00 8.9 6 Oeste 12 Oeste 0 -- -- 84
2019-12-11 03:00:00 9.3 7 Sudoeste 12 Oeste 0 -- -- 86
2019-12-11 02:00:00 9 9 Sudoeste 13 Oeste 0 -- -- 88
2019-12-11 01:00:00 8.7 7 Oeste 10 Oeste 0 -- -- 90
2019-12-11 00:00:00 9.4 9 Oeste 10 Sudoeste 0 -- -- 88
2019-12-10 23:00:00 9.8 5 Oeste 8 Sudoeste 0 -- -- 83
2019-12-10 22:00:00 9.9 3 Oeste 9 Sudoeste 0 -- -- 86
2019-12-10 21:00:00 10.2 5 Sudoeste 10 Sudoeste 0 -- -- 85
2019-12-10 20:00:00 10.5 5 Oeste 9 Sudoeste 0 -- -- 84
2019-12-10 19:00:00 11.2 6 Sudoeste 12 Sudoeste 0 -- -- 83
2019-12-10 18:00:00 12.5 5 Sudoeste 8 Sudoeste 0 -- -- 79
2019-12-10 17:00:00 14.3 3 Oeste 6 Sudoeste 0 -- -- 69
2019-12-10 16:00:00 15.4 3 Sudoeste 8 Sudoeste 0 -- -- 67
2019-12-10 15:00:00 15.7 4 Sudoeste 12 Sudoeste 0 -- -- 64
2019-12-10 14:00:00 16.1 8 Sudoeste 13 Oeste 0.2 -- -- 60
2019-12-10 13:00:00 15 4 Sudoeste 15 Sudoeste 0 -- -- 68
2019-12-10 12:00:00 13 8 Sudoeste 13 Sudoeste 0 -- -- 78
2019-12-10 11:00:00 10.7 5 Sudoeste 13 Sudoeste 0 -- -- 91
2019-12-10 10:00:00 7.9 9 Oeste 12 Oeste 0 -- -- 99
2019-12-10 09:00:00 7 6 Sudoeste 10 Oeste 0 -- -- 100
2019-12-10 08:00:00 7.8 6 Oeste 8 Sudoeste 0 -- -- 99
2019-12-10 07:00:00 8.4 6 Sudoeste 9 Sudoeste 0 -- -- 99
2019-12-10 06:00:00 8.6 6 Oeste 9 Oeste 0 -- -- 99
2019-12-10 05:00:00 8.7 3 Sudoeste 10 Sudoeste 0 -- -- 99
2019-12-10 04:00:00 8.7 5 Sudoeste 10 Sudoeste 0 -- -- 98
2019-12-10 03:00:00 8.9 7 Oeste 10 Oeste 0 -- -- 98
2019-12-10 02:00:00 9.1 7 Oeste 10 Oeste 0 -- -- 97
2019-12-10 01:00:00 9.3 8 Sudoeste 12 Sudoeste 0 -- -- 96
2019-12-10 00:00:00 9.4 6 Oeste 11 Oeste 0 -- -- 95
2019-12-09 23:00:00 9.9 6 Oeste 14 Norte 0 -- -- 92
2019-12-09 22:00:00 10.8 5 Nordeste 12 Norte 0 -- -- 85
2019-12-09 21:00:00 11.9 8 Nordeste 25 Norte 0 -- -- 83
2019-12-09 20:00:00 12.5 18 Norte 30 Norte 0 -- -- 72
2019-12-09 19:00:00 12.7 16 Norte 39 Nordeste 0 -- -- 69
2019-12-09 18:00:00 12.8 20 Norte 41 Norte 0 -- -- 73
2019-12-09 17:00:00 12.9 14 Norte 36 Norte 0 -- -- 71
2019-12-09 16:00:00 13.1 14 Nordeste 44 Nordeste 0 -- -- 66
2019-12-09 15:00:00 13.3 23 Nordeste 53 Norte 0 -- -- 68
2019-12-09 14:00:00 13.2 24 Nordeste 53 Norte 0 -- -- 74
2019-12-09 13:00:00 13.3 31 Nordeste 53 Nordeste 0 -- -- 72
2019-12-09 12:00:00 13 26 Nordeste 50 Nordeste 0.2 -- -- 72
2019-12-09 11:00:00 12.4 12 Norte 59 Norte 0.8 -- -- 80
2019-12-09 10:00:00 12.6 26 Nordeste 54 Noroeste 0.2 -- -- 82
2019-12-09 09:00:00 11.7 14 Norte 41 Noroeste 0.8 -- -- 86
2019-12-09 08:00:00 12.1 19 Norte 62 Noroeste 0.6 -- -- 82
2019-12-09 07:00:00 12.3 23 Noroeste 66 Noroeste 0 -- -- 83
2019-12-09 06:00:00 12.7 5 Este 37 Norte 0 -- -- 77
2019-12-09 05:00:00 12.6 12 Oeste 39 Noroeste 0 -- -- 78
2019-12-09 04:00:00 12.4 13 Noroeste 33 Oeste 0 -- -- 79
2019-12-09 03:00:00 12 9 Oeste 18 Sur 0 -- -- 81
2019-12-09 02:00:00 11.9 9 Sudoeste 27 Oeste 0 -- -- 82
2019-12-09 01:00:00 12.3 7 Sudeste 32 Oeste 0 -- -- 80
2019-12-09 00:00:00 12 10 Sur 36 Sudoeste 0 -- -- 84
2019-12-08 23:00:00 11.9 3 Sudoeste 23 Oeste 0 -- -- 89
2019-12-08 22:00:00 12.3 4 Sudoeste 15 Sur 0 -- -- 86
2019-12-08 21:00:00 12.4 6 Noroeste 18 Oeste 0 -- -- 85
2019-12-08 20:00:00 12.5 6 Norte 16 Nordeste 0 -- -- 85
2019-12-08 19:00:00 12.6 6 Noroeste 23 Sudeste 0 -- -- 84
2019-12-08 18:00:00 12.8 4 Sudeste 37 Nordeste 0.2 -- -- 87
2019-12-08 17:00:00 12.1 7 Nordeste 19 Norte 1.4 -- -- 100
2019-12-08 16:00:00 11.8 10 Sudoeste 17 Sudoeste 2.6 -- -- 99
2019-12-08 15:00:00 12.1 10 Sudoeste 17 Sudoeste 0.6 -- -- 96
2019-12-08 14:00:00 12.2 7 Sudoeste 12 Sur 0 -- -- 94
2019-12-08 13:00:00 12.1 8 Oeste 10 Oeste 0.8 -- -- 92
2019-12-08 12:00:00 12.2 7 Oeste 10 Sudoeste 0.2 -- -- 88
2019-12-08 11:00:00 11.3 7 Oeste 12 Sudoeste 0 -- -- 87
2019-12-08 10:00:00 10.2 6 Sudoeste 15 Sudoeste 0 -- -- 89
2019-12-08 09:00:00 8.5 4 Sudoeste 9 Oeste 0 -- -- 95
2019-12-08 08:00:00 7.7 8 Oeste 11 Oeste 0 -- -- 95
2019-12-08 07:00:00 7.2 8 Oeste 11 Sudoeste 0 -- -- 98
2019-12-08 06:00:00 5.9 9 Sudoeste 14 Sur 0 -- -- 99
2019-12-08 05:00:00 6.7 5 Sudoeste 10 Oeste 0 -- -- 98
2019-12-08 04:00:00 6.9 7 Oeste 14 Sudoeste 0 -- -- 100
2019-12-08 03:00:00 7.1 9 Sudoeste 13 Sudoeste 0 -- -- 99
2019-12-08 02:00:00 7.5 7 Sudoeste 12 Sudoeste 0 -- -- 99
2019-12-08 01:00:00 7.5 10 Sudoeste 13 Sudoeste 0 -- -- 99
2019-12-08 00:00:00 8.4 0 Calma 10 Sudoeste 0 -- -- 99
2019-12-07 23:00:00 8.7 7 Oeste 9 Oeste 0 -- -- 97
2019-12-07 22:00:00 9.3 6 Sudoeste 9 Sudoeste 0 -- -- 96
2019-12-07 21:00:00 10.3 3 Sur 14 Sudoeste 0 -- -- 95
2019-12-07 20:00:00 11.4 8 Sudoeste 9 Sudoeste 0 -- -- 91
2019-12-07 19:00:00 12.7 0 Calma 4 Norte 0 -- -- 84
2019-12-07 18:00:00 13.3 4 Nordeste 8 Nordeste 0 -- -- 82
2019-12-07 17:00:00 14.1 4 Nordeste 11 Nordeste 0 -- -- 77
2019-12-07 16:00:00 15.4 5 Nordeste 13 Norte 0 -- -- 74
2019-12-07 15:00:00 16.6 3 Nordeste 13 Nordeste 0 -- -- 66
2019-12-07 14:00:00 15.1 0 Calma 8 Sur 0 -- -- 74
2019-12-07 13:00:00 13.7 5 Sudoeste 9 Sudoeste 0 -- -- 82
2019-12-07 12:00:00 10.7 6 Sudoeste 10 Sudoeste 0 -- -- 95
2019-12-07 11:00:00 8.4 4 Sur 11 Sudoeste 0 -- -- 100
2019-12-07 10:00:00 7.3 4 Sudoeste 10 Oeste 0 -- -- 100
2019-12-07 09:00:00 5.9 8 Sudoeste 10 Oeste 0 -- -- 100
2019-12-07 08:00:00 5.1 6 Sudoeste 10 Oeste 0 -- -- 100
2019-12-07 07:00:00 5.2 5 Sudoeste 9 Sudoeste 0 -- -- 99
2019-12-07 06:00:00 5.8 7 Sudoeste 14 Sudoeste 0 -- -- 98
2019-12-07 05:00:00 6.8 0 Calma 12 Sudoeste 0 -- -- 99
2019-12-07 04:00:00 7 8 Sudoeste 11 Sudoeste 0 -- -- 98
2019-12-07 03:00:00 7.7 10 Sudoeste 15 Sudoeste 0 -- -- 96
2019-12-07 02:00:00 8.2 6 Sudoeste 16 Sudoeste 0 -- -- 95
2019-12-07 01:00:00 9 11 Sudoeste 15 Sudoeste 0 -- -- 94
2019-12-07 00:00:00 9 8 Sudoeste 14 Sudoeste 0 -- -- 94
2019-12-06 23:00:00 8.9 5 Sudoeste 12 Sudoeste 0 -- -- 95
2019-12-06 22:00:00 8.8 6 Sudoeste 14 Sudoeste 0 -- -- 94
2019-12-06 21:00:00 9.4 8 Oeste 14 Sudoeste 0 -- -- 93
2019-12-06 20:00:00 9.7 10 Sudoeste 14 Sudoeste 0 -- -- 91
2019-12-06 19:00:00 10.4 10 Sudoeste 14 Sur 0 -- -- 88
2019-12-06 18:00:00 12 4 Oeste 15 Nordeste 0 -- -- 85
2019-12-06 17:00:00 12.9 8 Nordeste 14 Nordeste 0 -- -- 83
2019-12-06 16:00:00 14.8 4 Nordeste 12 Oeste 0 -- -- 78
2019-12-06 15:00:00 16.5 6 Sudoeste 14 Oeste 0 -- -- 63
2019-12-06 14:00:00 16 10 Sudoeste 18 Sudoeste 0 -- -- 63
2019-12-06 13:00:00 14.5 10 Sudoeste 17 Oeste 0 -- -- 75
2019-12-06 12:00:00 10.6 2 Nordeste 5 Norte 0 -- -- 100
2019-12-06 11:00:00 8 4 Sudoeste 11 Sur 0 -- -- 100
2019-12-06 10:00:00 6.1 6 Sudoeste 14 Sudoeste 0 -- -- 100
2019-12-06 09:00:00 3.4 8 Sudoeste 10 Sudoeste 0 -- -- 100
2019-12-06 08:00:00 3.5 7 Sudoeste 9 Oeste 0 -- -- 100
2019-12-06 07:00:00 4 4 Sur 12 Sudoeste 0 -- -- 100
2019-12-06 06:00:00 4.4 7 Sudoeste 10 Sudoeste 0.2 -- -- 100
2019-12-06 05:00:00 4.5 7 Sudoeste 11 Sur 0 -- -- 100
2019-12-06 04:00:00 4.6 3 Sudoeste 11 Sudoeste 0 -- -- 100
2019-12-06 03:00:00 5.2 4 Sur 8 Sudoeste 0 -- -- 100
2019-12-06 02:00:00 5.8 5 Sudoeste 12 Sudoeste 0 -- -- 100
2019-12-06 01:00:00 6 9 Oeste 11 Oeste 0 -- -- 100
2019-12-06 00:00:00 7.2 2 Sudoeste 6 Oeste 0 -- -- 100
2019-12-05 23:00:00 7.5 5 Sudoeste 10 Sudoeste 0 -- -- 99
2019-12-05 22:00:00 7.9 5 Sudoeste 10 Sudoeste 0 -- -- 98
2019-12-05 21:00:00 8.8 5 Sudoeste 9 Sudoeste 0 -- -- 98
2019-12-05 20:00:00 9 6 Sudoeste 9 Oeste 0 -- -- 97
2019-12-05 19:00:00 9.9 7 Oeste 10 Oeste 0 -- -- 96
2019-12-05 18:00:00 11 4 Norte 7 Nordeste 0 -- -- 92
2019-12-05 17:00:00 12.2 4 Norte 15 Nordeste 0 -- -- 87
2019-12-05 16:00:00 13.7 9 Norte 17 Nordeste 0 -- -- 82
2019-12-05 15:00:00 13.2 5 Norte 11 Norte 0 -- -- 86
2019-12-05 14:00:00 12.7 2 Sur 8 Sudoeste 0 -- -- 87
2019-12-05 13:00:00 12.2 4 Sudoeste 8 Sudoeste 0 -- -- 87
2019-12-05 12:00:00 11.1 5 Sudoeste 9 Sudoeste 0 -- -- 91
2019-12-05 11:00:00 9.4 4 Sudoeste 10 Oeste 0 -- -- 99
2019-12-05 10:00:00 8 4 Sudoeste 8 Sur 0 -- -- 100
2019-12-05 09:00:00 7.4 2 Este 9 Sudoeste 0 -- -- 100
2019-12-05 08:00:00 7.1 5 Sudoeste 8 Sudoeste 0 -- -- 100
2019-12-05 07:00:00 7 4 Sudoeste 6 Sur 0 -- -- 100
2019-12-05 06:00:00 7.3 3 Sudoeste 10 Sudoeste 0 -- -- 99
2019-12-05 05:00:00 7.5 0 Calma 5 Sur 0 -- -- 100
2019-12-05 04:00:00 7.5 4 Este 8 Nordeste 0 -- -- 100
2019-12-05 03:00:00 7.3 0 Calma 8 Oeste 0 -- -- 99
2019-12-05 02:00:00 7.3 3 Sudoeste 8 Oeste 0 -- -- 99
2019-12-05 01:00:00 7.1 4 Sudeste 9 Sudeste 0 -- -- 99
2019-12-05 00:00:00 7.5 0 Calma 9 Sudoeste 0 -- -- 99
2019-12-04 23:00:00 7.3 4 Sur 6 Sur 0 -- -- 98
2019-12-04 22:00:00 7.5 3 Sur 6 Sur 0 -- -- 96
2019-12-04 21:00:00 8.2 4 Sur 9 Norte 0 -- -- 94
2019-12-04 20:00:00 8.6 5 Nordeste 22 Sudeste 0 -- -- 93
2019-12-04 19:00:00 10.2 2 Sudeste 23 Norte 0 -- -- 87
2019-12-04 18:00:00 10.7 9 Norte 22 Noroeste 0 -- -- 81
2019-12-04 17:00:00 10.7 9 Nordeste 17 Nordeste 0 -- -- 85
2019-12-04 16:00:00 11.5 13 Norte 19 Norte 0 -- -- 78
2019-12-04 15:00:00 11.4 9 Nordeste 15 Este 0 -- -- 82
2019-12-04 14:00:00 11.5 4 Nordeste 12 Norte 0 -- -- 82
2019-12-04 13:00:00 10.1 3 Norte 8 Norte 0 -- -- 88
2019-12-04 12:00:00 7.8 2 Sur 9 Oeste 0.2 -- -- 94
2019-12-04 11:00:00 5.5 2 Nordeste 9 Sudoeste 0 -- -- 100
2019-12-04 10:00:00 2.5 5 Sudoeste 13 Oeste 0 -- -- 100
2019-12-04 09:00:00 0.3 7 Sudoeste 8 Sudoeste 0 -- -- 100
2019-12-04 08:00:00 0.1 5 Sudoeste 10 Sudoeste 0 -- -- 100
2019-12-04 07:00:00 -0.1 6 Sudoeste 9 Sudoeste 0 -- -- 100
2019-12-04 06:00:00 0 5 Sudoeste 10 Oeste 0 -- -- 100
2019-12-04 05:00:00 0 0 Calma 9 Oeste 0 -- -- 100
2019-12-04 04:00:00 0.2 5 Sudoeste 7 Sudoeste 0 -- -- 100
2019-12-04 03:00:00 0.3 6 Oeste 8 Oeste 0 -- -- 100
2019-12-04 02:00:00 0.8 3 Sudoeste 9 Sudoeste 0 -- -- 100
2019-12-04 01:00:00 1.2 5 Sudoeste 8 Sudoeste 0 -- -- 100
2019-12-04 00:00:00 1.4 5 Sudoeste 9 Sudoeste 0 -- -- 100
2019-12-03 23:00:00 2 5 Sudoeste 8 Sudoeste 0 -- -- 100
2019-12-03 22:00:00 2.5 3 Sudoeste 9 Sudoeste 0 -- -- 99
2019-12-03 21:00:00 2.9 6 Sudoeste 10 Oeste 0 -- -- 99
2019-12-03 20:00:00 3.7 3 Sudoeste 6 Sur 0 -- -- 96
2019-12-03 19:00:00 4.9 0 Calma 5 Noroeste 0 -- -- 93
2019-12-03 18:00:00 6.6 3 Noroeste 5 Sudeste 0 -- -- 87
2019-12-03 17:00:00 8.7 2 Este 6 Nordeste 0 -- -- 79
2019-12-03 16:00:00 9.4 4 Norte 8 Norte 0 -- -- 75
2019-12-03 15:00:00 8.3 4 Norte 10 Este 0 -- -- 82
2019-12-03 14:00:00 7.8 2 Este 8 Este 0 -- -- 86
2019-12-03 13:00:00 7.7 3 Este 10 Este 0 -- -- 87
2019-12-03 12:00:00 7.7 3 Este 5 Nordeste 0 -- -- 92
2019-12-03 11:00:00 7 2 Norte 5 Sudoeste 0 -- -- 100
2019-12-03 10:00:00 6.6 0 Calma 3 Sur 0 -- -- 100
2019-12-03 09:00:00 6.4 2 Sudoeste 7 Sudoeste 0 -- -- 100
2019-12-03 08:00:00 6.4 4 Sur 8 Oeste 0 -- -- 99
2019-12-03 07:00:00 6.5 4 Oeste 5 Sudoeste 0 -- -- 99
2019-12-03 06:00:00 6.3 0 Calma 6 Sudoeste 0 -- -- 99
2019-12-03 05:00:00 6.3 5 Oeste 9 Oeste 0 -- -- 99
2019-12-03 04:00:00 6.4 6 Oeste 9 Sudoeste 0 -- -- 98
2019-12-03 03:00:00 6.8 0 Calma 11 Este 0 -- -- 94
2019-12-03 02:00:00 7.5 6 Nordeste 13 Nordeste 0 -- -- 83
2019-12-03 01:00:00 7.7 8 Nordeste 20 Nordeste 0 -- -- 81
2019-12-03 00:00:00 8 10 Nordeste 23 Nordeste 0 -- -- 78
2019-12-02 23:00:00 8 9 Este 19 Nordeste 0 -- -- 82
2019-12-02 22:00:00 8 8 Este 21 Este 0 -- -- 83
2019-12-02 21:00:00 8.2 9 Nordeste 21 Nordeste 0 -- -- 81
2019-12-02 20:00:00 8.1 11 Nordeste 19 Nordeste 0 -- -- 84
2019-12-02 19:00:00 8 8 Nordeste 18 Este 0 -- -- 85
2019-12-02 18:00:00 8 8 Este 14 Nordeste 0 -- -- 84
2019-12-02 17:00:00 8.1 6 Este 21 Nordeste 0 -- -- 83
2019-12-02 16:00:00 8.3 9 Nordeste 23 Nordeste 0 -- -- 82
2019-12-02 15:00:00 8.7 10 Nordeste 25 Nordeste 0 -- -- 86
2019-12-02 14:00:00 9.1 13 Este 26 Nordeste 0 -- -- 85
2019-12-02 13:00:00 9.7 15 Nordeste 29 Este 0 -- -- 86
2019-12-02 12:00:00 9.9 17 Este 31 Este 0 -- -- 88
2019-12-02 11:00:00 10.2 19 Este 34 Este 0 -- -- 89
2019-12-02 10:00:00 10.3 18 Nordeste 37 Este 0.2 -- -- 92
2019-12-02 09:00:00 10.6 4 Este 19 Este 0 -- -- 90
2019-12-02 08:00:00 10.5 10 Este 23 Este 0 -- -- 91
2019-12-02 07:00:00 10.3 12 Este 27 Este 0 -- -- 91
2019-12-02 06:00:00 9.4 7 Este 17 Este 0 -- -- 100
2019-12-02 05:00:00 9 2 Oeste 10 Oeste 0 -- -- 100
2019-12-02 04:00:00 8.9 9 Oeste 12 Oeste 2.2 -- -- 100
2019-12-02 03:00:00 8.9 3 Norte 6 Norte 3 -- -- 100
2019-12-02 02:00:00 8.9 3 Sudoeste 9 Sur 3.2 -- -- 100
2019-12-02 01:00:00 9 3 Sur 8 Sudoeste 1.6 -- -- 100
2019-12-02 00:00:00 9 2 Sur 8 Oeste 0.2 -- -- 100
2019-12-01 23:00:00 9.1 3 Sur 10 Sudoeste 0.2 -- -- 100
2019-12-01 22:00:00 9.2 4 Sudoeste 8 Sudoeste 0 -- -- 99
2019-12-01 21:00:00 9.1 0 Calma 11 Sudoeste 0 -- -- 99
2019-12-01 20:00:00 9.6 2 Sur 8 Sudeste 2.4 -- -- 96
2019-12-01 19:00:00 9.9 4 Nordeste 8 Nordeste 0.2 -- -- 94
2019-12-01 18:00:00 11.6 3 Este 6 Norte 0 -- -- 87
2019-12-01 17:00:00 12.7 4 Norte 12 Este 0 -- -- 83
2019-12-01 16:00:00 13.4 4 Nordeste 10 Norte 0 -- -- 78
2019-12-01 15:00:00 14.1 4 Nordeste 8 Nordeste 0 -- -- 74
2019-12-01 14:00:00 14.4 2 Nordeste 6 Sudeste 0 -- -- 73
2019-12-01 13:00:00 13.8 0 Calma 8 Sur 0 -- -- 76
2019-12-01 12:00:00 12.7 6 Sur 9 Sur 0 -- -- 87
2019-12-01 11:00:00 8.9 4 Sudoeste 6 Oeste 0 -- -- 99
2019-12-01 10:00:00 7.9 4 Sur 10 Sur 0 -- -- 100
2019-12-01 09:00:00 6.9 8 Sur 12 Sudoeste 0 -- -- 100
2019-12-01 08:00:00 6.3 9 Sudoeste 12 Sudoeste 0 -- -- 100
2019-12-01 07:00:00 6 7 Sudoeste 10 Sudoeste 0 -- -- 100
2019-12-01 06:00:00 5.7 5 Sur 8 Sudoeste 0 -- -- 100
2019-12-01 05:00:00 4.9 6 Oeste 11 Oeste 0 -- -- 100
2019-12-01 04:00:00 4.5 9 Sudoeste 13 Sudoeste 0.2 -- -- 100
2019-12-01 03:00:00 4.7 5 Sudoeste 13 Sudoeste 0 -- -- 100
2019-12-01 02:00:00 5 5 Sudoeste 10 Sudoeste 0 -- -- 100
2019-12-01 01:00:00 5.4 6 Sudoeste 10 Sudoeste 0 -- -- 100
2019-12-01 00:00:00 6.1 5 Sudoeste 12 Sudoeste 0 -- -- 100
2019-11-30 23:00:00 6.8 8 Sudoeste 11 Sudoeste 0 -- -- 100
2019-11-30 22:00:00 7.4 4 Sudoeste 12 Sudoeste 0 -- -- 100
2019-11-30 21:00:00 8.1 7 Sudoeste 9 Sudoeste 0 -- -- 100
2019-11-30 20:00:00 9.1 5 Sur 9 Sudoeste 0.2 -- -- 100
2019-11-30 19:00:00 9.8 4 Sur 7 Sudeste 0 -- -- 100
2019-11-30 18:00:00 10.4 7 Sudoeste 14 Sudoeste 0 -- -- 100
2019-11-30 17:00:00 11.2 5 Sudoeste 10 Sudoeste 0 -- -- 100
2019-11-30 16:00:00 11.4 6 Sudoeste 14 Oeste 0 -- -- 100
2019-11-30 15:00:00 11.3 8 Sudoeste 13 Oeste 0 -- -- 100
2019-11-30 14:00:00 11.3 7 Sudoeste 14 Sudoeste 0 -- -- 100
2019-11-30 13:00:00 11.8 4 Sur 10 Sur 0 -- -- 99
2019-11-30 12:00:00 12.4 3 Sudeste 37 Noroeste 0 -- -- 94
2019-11-30 11:00:00 13.7 20 Norte 47 Noroeste 0 -- -- 89
2019-11-30 10:00:00 17.1 9 Sudoeste 26 Sudoeste 0 -- -- 74
2019-11-30 09:00:00 17.2 21 Oeste 35 Sudoeste 0 -- -- 71
2019-11-30 08:00:00 16.3 17 Oeste 30 Oeste 0 -- -- 77
2019-11-30 07:00:00 14.6 8 Sudoeste 19 Oeste 0 -- -- 86
2019-11-30 06:00:00 15.4 15 Sudoeste 27 Oeste 0 -- -- 81
2019-11-30 05:00:00 11.6 14 Oeste 21 Oeste 0 -- -- 100
2019-11-30 04:00:00 8.5 6 Sudoeste 12 Sudoeste 0 -- -- 100
2019-11-30 03:00:00 6.9 9 Sudoeste 13 Sudoeste 0 -- -- 100
2019-11-30 02:00:00 6.7 8 Sudoeste 10 Oeste 0 -- -- 100
2019-11-30 01:00:00 6.9 7 Sudoeste 11 Oeste 0 -- -- 100
2019-11-30 00:00:00 7.8 7 Oeste 9 Oeste 0 -- -- 100
2019-11-29 23:00:00 8.6 5 Sudoeste 9 Sudoeste 0 -- -- 99
2019-11-29 22:00:00 9 3 Sudoeste 9 Sudoeste 0 -- -- 98
2019-11-29 21:00:00 9.5 6 Sudoeste 9 Sudoeste 0 -- -- 97
2019-11-29 20:00:00 10.6 4 Oeste 5 Oeste 0 -- -- 95
2019-11-29 19:00:00 11.9 2 Norte 8 Nordeste 0 -- -- 92
2019-11-29 18:00:00 13.1 5 Norte 12 Norte 0 -- -- 85
2019-11-29 17:00:00 14.9 6 Norte 14 Nordeste 0 -- -- 77
2019-11-29 16:00:00 16.3 10 Norte 18 Norte 0 -- -- 70
2019-11-29 15:00:00 18.3 4 Noroeste 17 Oeste 0 -- -- 64
2019-11-29 14:00:00 17.4 9 Oeste 18 Oeste 0 -- -- 69
2019-11-29 13:00:00 16.7 10 Oeste 23 Oeste 0 -- -- 74
2019-11-29 12:00:00 16 10 Oeste 17 Oeste 0 -- -- 81
2019-11-29 11:00:00 14 8 Sur 14 Sur 0 -- -- 97
2019-11-29 10:00:00 12.4 5 Sudoeste 12 Sudoeste 0 -- -- 100
2019-11-29 09:00:00 11.9 9 Oeste 13 Oeste 0 -- -- 100
2019-11-29 08:00:00 11.8 7 Oeste 17 Oeste 0 -- -- 100
2019-11-29 07:00:00 10.6 12 Oeste 17 Sudoeste 0 -- -- 100
2019-11-29 06:00:00 10.6 9 Sudoeste 15 Sudoeste 0 -- -- 100
2019-11-29 05:00:00 11.5 9 Oeste 14 Oeste 0 -- -- 100
2019-11-29 04:00:00 11.6 7 Oeste 15 Sudoeste 0 -- -- 100
2019-11-29 03:00:00 12 6 Sudoeste 18 Oeste 0.2 -- -- 100
2019-11-29 02:00:00 11 5 Sudoeste 12 Sudoeste 0.2 -- -- 100
2019-11-29 01:00:00 10.9 8 Sudoeste 13 Sudoeste 0 -- -- 100
2019-11-29 00:00:00 10.6 5 Oeste 7 Oeste 0.2 -- -- 100
2019-11-28 23:00:00 10.7 2 Sudeste 6 Oeste 0.2 -- -- 100
2019-11-28 22:00:00 10.5 0 Calma 6 Sudoeste 0 -- -- 100
2019-11-28 21:00:00 10.8 3 Sudoeste 6 Oeste 0 -- -- 100
2019-11-28 20:00:00 11.1 4 Sudoeste 9 Nordeste 0 -- -- 100
2019-11-28 19:00:00 11.2 6 Nordeste 13 Sudoeste 0.4 -- -- 100
2019-11-28 18:00:00 11.6 6 Sudoeste 9 Sudoeste 2.8 -- -- 99
2019-11-28 17:00:00 12 3 Oeste 7 Oeste 2.4 -- -- 98
2019-11-28 16:00:00 12.7 3 Nordeste 6 Este 0.6 -- -- 95
2019-11-28 15:00:00 13.2 4 Sudoeste 7 Sudoeste 0 -- -- 91
2019-11-28 14:00:00 13.5 4 Sudoeste 9 Sudoeste 0 -- -- 91
2019-11-28 13:00:00 13.3 5 Sudoeste 9 Sudoeste 0 -- -- 91
2019-11-28 12:00:00 13.1 5 Oeste 9 Sudoeste 0 -- -- 93
2019-11-28 11:00:00 12.5 5 Oeste 19 Noroeste 0 -- -- 94
2019-11-28 10:00:00 12.3 6 Noroeste 19 Noroeste 0 -- -- 92
2019-11-28 09:00:00 11 8 Oeste 19 Oeste 0 -- -- 100
2019-11-28 08:00:00 9.6 6 Sudoeste 13 Oeste 0.4 -- -- 99
2019-11-28 07:00:00 9.4 6 Sudoeste 15 Sudoeste 0.6 -- -- 99
2019-11-28 06:00:00 9.6 9 Sudoeste 21 Noroeste 0.4 -- -- 98
2019-11-28 05:00:00 10.7 10 Noroeste 24 Noroeste 0.4 -- -- 96
2019-11-28 04:00:00 8.6 3 Oeste 8 Sudoeste 0 -- -- 100
2019-11-28 03:00:00 9.1 6 Sudoeste 12 Sudoeste 0 -- -- 100
2019-11-28 02:00:00 9.5 8 Sudoeste 13 Sudoeste 0.2 -- -- 100
2019-11-28 01:00:00 9.7 7 Sudoeste 10 Sudoeste 0 -- -- 100
2019-11-28 00:00:00 10 6 Sudoeste 11 Sudoeste 0 -- -- 100
2019-11-27 23:00:00 10 5 Sudoeste 8 Sudoeste 0 -- -- 99
2019-11-27 22:00:00 10.1 7 Oeste 10 Oeste 0 -- -- 99
2019-11-27 21:00:00 10.4 0 Calma 10 Oeste 0 -- -- 98
2019-11-27 20:00:00 10.5 4 Sur 8 Sudoeste 0.2 -- -- 97
2019-11-27 19:00:00 11.2 4 Sudoeste 13 Sudoeste 0 -- -- 95
2019-11-27 18:00:00 11.7 9 Sudoeste 24 Norte 0.4 -- -- 92
2019-11-27 17:00:00 12.9 14 Norte 34 Norte 1.4 -- -- 84
2019-11-27 16:00:00 15.6 10 Sudoeste 28 Sudoeste 0 -- -- 65
2019-11-27 15:00:00 15.6 12 Sudoeste 25 Oeste 0 -- -- 66
2019-11-27 14:00:00 15.8 10 Sudoeste 20 Sudoeste 0 -- -- 67
2019-11-27 06:00:00 -- -- -- -- -- -- -- -- --
2019-11-27 05:00:00 9.1 3 Sudoeste 24 Oeste 0 -- -- 91
2019-11-27 04:00:00 9.5 4 Oeste 17 Noroeste 0 -- -- 93
2019-11-27 03:00:00 9.4 8 Sudoeste 13 Oeste 0 -- -- 100
2019-11-27 02:00:00 9.7 8 Sudoeste 13 Oeste 0 -- -- 98
2019-11-27 01:00:00 9.9 5 Nordeste 10 Sudoeste 0 -- -- 96
2019-11-27 00:00:00 11.6 5 Oeste 13 Sur 0 -- -- 92
2019-11-26 23:00:00 12.8 10 Sudoeste 24 Norte 0 -- -- 89
2019-11-26 22:00:00 14.6 14 Norte 56 Norte 0 -- -- 82
2019-11-26 21:00:00 17.5 19 Oeste 30 Oeste 0 -- -- 66
2019-11-26 20:00:00 15.5 6 Sudoeste 16 Sudoeste 0 -- -- 91
2019-11-26 19:00:00 16.6 15 Oeste 41 Sudoeste 1.4 -- -- 87
2019-11-26 18:00:00 19.4 21 Oeste 42 Sudoeste 0 -- -- 67
2019-11-26 17:00:00 18.7 14 Sudoeste 24 Sudoeste 0 -- -- 70
2019-11-26 16:00:00 18.6 8 Sudoeste 23 Sur 0 -- -- 70
2019-11-26 15:00:00 19.2 6 Sudoeste 15 Sudoeste 0 -- -- 68
2019-11-26 14:00:00 19.5 5 Sur 20 Sudoeste 0 -- -- 67
2019-11-26 13:00:00 19.6 15 Sudoeste 27 Sudoeste 0 -- -- 67
2019-11-26 12:00:00 19.8 10 Sudoeste 35 Oeste 0 -- -- 65
2019-11-26 11:00:00 18.9 23 Oeste 43 Sudoeste 0 -- -- 68
2019-11-26 10:00:00 17.9 19 Sudoeste 32 Oeste 0 -- -- 70
2019-11-26 09:00:00 14.9 9 Sudoeste 22 Sudoeste 0 -- -- 77
2019-11-26 08:00:00 14.7 6 Sudoeste 22 Sudoeste 0 -- -- 74
2019-11-26 07:00:00 13.9 8 Sur 19 Sur 0 -- -- 75
2019-11-26 06:00:00 14.2 9 Sudoeste 21 Sudoeste 0 -- -- 72
2019-11-26 05:00:00 13.8 11 Sur 25 Oeste 0 -- -- 74
2019-11-26 04:00:00 13.5 13 Sudoeste 24 Sudoeste 0 -- -- 76
2019-11-26 03:00:00 10.5 12 Sudoeste 22 Sudoeste 0 -- -- 100
2019-11-26 02:00:00 8.7 4 Sudoeste 12 Oeste 0 -- -- 100
2019-11-26 01:00:00 8.8 10 Sudoeste 12 Sudoeste 0 -- -- 99
2019-11-26 00:00:00 9.8 4 Sudoeste 9 Sudoeste 0 -- -- 99
2019-11-25 23:00:00 10.7 3 Sudoeste 5 Sudoeste 0 -- -- 98
2019-11-25 22:00:00 12 0 Calma 4 Noroeste 0 -- -- 97
2019-11-25 21:00:00 12.8 2 Sudoeste 5 Oeste 0 -- -- 95
2019-11-25 20:00:00 13.2 0 Calma 3 Sur 0 -- -- 94
2019-11-25 19:00:00 13.7 2 Sur 6 Sudoeste 0 -- -- 92
2019-11-25 18:00:00 14.2 4 Sudoeste 6 Oeste 0 -- -- 88
2019-11-25 17:00:00 14.8 0 Calma 11 Este 0 -- -- 84
2019-11-25 16:00:00 15.4 7 Nordeste 15 Nordeste 0 -- -- 82
2019-11-25 15:00:00 16 5 Nordeste 14 Nordeste 0 -- -- 80
2019-11-25 14:00:00 15.7 7 Nordeste 21 Nordeste 0 -- -- 82
2019-11-25 13:00:00 16.9 9 Nordeste 17 Nordeste 0 -- -- 77
2019-11-25 12:00:00 16 7 Nordeste 12 Norte 0 -- -- 80
2019-11-25 11:00:00 14.5 0 Calma 9 Sudoeste 0 -- -- 86
2019-11-25 10:00:00 12.2 3 Nordeste 15 Sudoeste 0 -- -- 95
2019-11-25 09:00:00 10.9 4 Sur 10 Nordeste 0 -- -- 94
2019-11-25 08:00:00 11.1 4 Sudoeste 9 Sudoeste 0 -- -- 92
2019-11-25 07:00:00 12.4 5 Oeste 15 Sudeste 0 -- -- 84
2019-11-25 06:00:00 12.1 6 Sur 23 Sudoeste 0 -- -- 86
2019-11-25 05:00:00 13.1 6 Sur 16 Sudoeste 0 -- -- 80
2019-11-25 04:00:00 12.5 9 Sur 18 Sur 0 -- -- 82
2019-11-25 03:00:00 12.4 8 Sur 17 Sur 0 -- -- 83
2019-11-25 02:00:00 11.6 8 Sudoeste 13 Sudoeste 0.2 -- -- 90
2019-11-25 01:00:00 11.6 6 Sur 11 Sur 0 -- -- 90
2019-11-25 00:00:00 10.8 7 Sur 14 Sudoeste 0 -- -- 95
2019-11-24 23:00:00 10.3 6 Sudoeste 14 Sudeste 0.8 -- -- 93
2019-11-24 22:00:00 10.4 6 Sur 25 Sudoeste 2.8 -- -- 93
2019-11-24 21:00:00 11.3 7 Sur 21 Sudoeste 0 -- -- 78
2019-11-24 20:00:00 11.5 10 Sudoeste 22 Oeste 0 -- -- 75
2019-11-24 19:00:00 11 6 Sur 18 Sur 0 -- -- 81
2019-11-24 18:00:00 11.6 10 Sudoeste 14 Sudoeste 0 -- -- 79
2019-11-24 17:00:00 12.6 6 Sudoeste 10 Sudoeste 0 -- -- 83
2019-11-24 16:00:00 13.6 4 Sudoeste 11 Sudoeste 0 -- -- 78
2019-11-24 15:00:00 13.4 5 Oeste 9 Oeste 0 -- -- 82
2019-11-24 14:00:00 12.5 2 Sur 10 Sur 0 -- -- 87
2019-11-24 13:00:00 11.5 4 Sudoeste 10 Sudoeste 0 -- -- 92
2019-11-24 12:00:00 10.6 6 Sudoeste 17 Sudoeste 0 -- -- 95
2019-11-24 11:00:00 10.3 9 Oeste 33 Oeste 0.2 -- -- 96
2019-11-24 10:00:00 10.6 13 Noroeste 31 Noroeste 0 -- -- 91
2019-11-24 09:00:00 9.2 10 Sudoeste 21 Oeste 0.2 -- -- 98
2019-11-24 08:00:00 8.9 11 Oeste 21 Oeste 0 -- -- 98
2019-11-24 07:00:00 9.3 10 Sudoeste 24 Sudoeste 2 -- -- 97
2019-11-24 06:00:00 9.6 8 Oeste 25 Oeste 3.4 -- -- 95
2019-11-24 05:00:00 9.9 8 Sudoeste 35 Norte 1.2 -- -- 93
2019-11-24 04:00:00 9.9 11 Oeste 34 Oeste 1.4 -- -- 94
2019-11-24 03:00:00 9.4 12 Oeste 27 Sudoeste 0.8 -- -- 96
2019-11-24 02:00:00 9.1 11 Oeste 30 Noroeste 4.8 -- -- 97
2019-11-24 01:00:00 9.4 7 Sudoeste 33 Oeste 1.8 -- -- 93
2019-11-24 00:00:00 10 13 Oeste 44 Noroeste 1 -- -- 88
2019-11-23 23:00:00 10.1 9 Oeste 25 Oeste 0.8 -- -- 88
2019-11-23 22:00:00 10.2 13 Oeste 36 Noroeste 0.6 -- -- 87
2019-11-23 21:00:00 10.1 9 Oeste 40 Noroeste 1.2 -- -- 91
2019-11-23 20:00:00 10.3 13 Noroeste 35 Noroeste 1.4 -- -- 88
2019-11-23 19:00:00 10.4 12 Oeste 31 Noroeste 0.8 -- -- 87
2019-11-23 18:00:00 10.8 14 Noroeste 35 Norte 1.8 -- -- 90
2019-11-23 17:00:00 11.4 18 Norte 64 Norte 2.2 -- -- 80
2019-11-23 16:00:00 12.3 12 Norte 48 Nordeste 0.6 -- -- 77
2019-11-23 15:00:00 12.4 12 Norte 60 Norte 0.6 -- -- 75
2019-11-23 14:00:00 11.4 32 Nordeste 62 Nordeste 1.2 -- -- 83
2019-11-23 13:00:00 11.6 31 Nordeste 61 Nordeste 0.2 -- -- 79
2019-11-23 12:00:00 11.9 30 Norte 80 Norte 0.4 -- -- 79
2019-11-23 11:00:00 11 15 Norte 66 Nordeste 1.6 -- -- 81
2019-11-23 10:00:00 10.5 23 Norte 78 Norte 5.4 -- -- 90
2019-11-23 09:00:00 10.5 28 Norte 105 Norte 9.2 -- -- 94
2019-11-23 08:00:00 11 22 Norte 85 Noroeste 8 -- -- 96
2019-11-23 07:00:00 10.9 14 Noroeste 55 Noroeste 14.8 -- -- 98
2019-11-23 06:00:00 10.2 18 Oeste 48 Oeste 9 -- -- 98
2019-11-23 05:00:00 10.2 9 Sudoeste 26 Sudoeste 3.8 -- -- 93
2019-11-23 04:00:00 11.9 12 Oeste 30 Sudoeste 1 -- -- 81
2019-11-23 03:00:00 12.9 14 Sudoeste 32 Oeste 0.2 -- -- 73
2019-11-23 02:00:00 14.2 14 Oeste 41 Sudoeste 0 -- -- 60
2019-11-23 01:00:00 14.2 16 Sudoeste 33 Sudoeste 0 -- -- 62
2019-11-23 00:00:00 14.5 21 Sudoeste 42 Sudoeste 0 -- -- 62
2019-11-22 23:00:00 14.5 21 Sudoeste 40 Oeste 0 -- -- 60
2019-11-22 22:00:00 14.5 20 Sudoeste 37 Sudoeste 0 -- -- 60
2019-11-22 21:00:00 14.1 14 Sudoeste 30 Sudoeste 0 -- -- 68
2019-11-22 20:00:00 13.2 13 Oeste 32 Sudoeste 0 -- -- 75
2019-11-22 19:00:00 13.7 22 Sudoeste 41 Sur 0 -- -- 74
2019-11-22 18:00:00 13.9 13 Sudoeste 31 Sudoeste 0 -- -- 71
2019-11-22 17:00:00 14.4 17 Sudoeste 44 Sudoeste 0 -- -- 70
2019-11-22 16:00:00 14.1 22 Sudoeste 53 Sudoeste 0 -- -- 70
2019-11-22 15:00:00 13.9 28 Sudoeste 55 Sudoeste 0.2 -- -- 71
2019-11-22 14:00:00 14.6 23 Sudoeste 54 Sudoeste 0 -- -- 65
2019-11-22 13:00:00 14.4 24 Sudoeste 49 Oeste 0 -- -- 66
2019-11-22 12:00:00 15.5 6 Sur 43 Sudoeste 0 -- -- 60
2019-11-22 11:00:00 14.3 21 Sudoeste 49 Sudoeste 0 -- -- 62
2019-11-22 10:00:00 13.2 19 Sudoeste 43 Sudoeste 0 -- -- 64
2019-11-22 09:00:00 12.7 18 Sudoeste 32 Sudoeste 0 -- -- 64
2019-11-22 08:00:00 12.7 22 Sudoeste 49 Sudoeste 0 -- -- 62
2019-11-22 07:00:00 11.5 6 Sudoeste 28 Oeste 0 -- -- 66
2019-11-22 06:00:00 11 12 Sudoeste 33 Oeste 0 -- -- 68
2019-11-22 05:00:00 11 13 Sudoeste 28 Sudoeste 0 -- -- 67
2019-11-22 04:00:00 10.7 10 Sudoeste 21 Sudoeste 0 -- -- 67
2019-11-22 03:00:00 10.6 10 Sudoeste 17 Sudoeste 0 -- -- 68
2019-11-22 02:00:00 10.1 8 Sudoeste 18 Sudoeste 0 -- -- 71
2019-11-22 01:00:00 9.6 8 Sudoeste 15 Sudoeste 0 -- -- 73
2019-11-22 00:00:00 8 10 Sudoeste 17 Sudoeste 0 -- -- 83
2019-11-21 23:00:00 6.4 3 Sur 8 Sur 0 -- -- 93
2019-11-21 22:00:00 5.8 6 Sur 11 Sudoeste 0 -- -- 96
2019-11-21 21:00:00 6.3 6 Sudoeste 10 Sudoeste 0 -- -- 94
2019-11-21 20:00:00 7.6 6 Sudoeste 10 Sudoeste 0 -- -- 90
2019-11-21 19:00:00 8.7 5 Sudoeste 10 Oeste 0 -- -- 86
2019-11-21 18:00:00 10.8 6 Sudoeste 10 Oeste 0 -- -- 75
2019-11-21 17:00:00 12.6 6 Norte 18 Norte 0 -- -- 67
2019-11-21 16:00:00 15.7 9 Norte 22 Oeste 0 -- -- 60
2019-11-21 15:00:00 16.5 9 Oeste 30 Oeste 0 -- -- 54
2019-11-21 14:00:00 15.9 14 Oeste 30 Sudoeste 0 -- -- 56
2019-11-21 13:00:00 15.1 18 Oeste 34 Sudoeste 0 -- -- 59
2019-11-21 12:00:00 15 12 Sudoeste 29 Oeste 0 -- -- 59
2019-11-21 11:00:00 13.2 11 Sudoeste 19 Sudoeste 0 -- -- 65
2019-11-21 10:00:00 11.1 5 Sur 15 Sudoeste 0 -- -- 75
2019-11-21 09:00:00 9.2 10 Sudoeste 17 Sudoeste 0 -- -- 78
2019-11-21 08:00:00 -- -- -- -- -- -- -- -- --
2019-11-21 07:00:00 -- -- -- -- -- -- -- -- --
2019-11-21 06:00:00 -- -- -- -- -- -- -- -- --
2019-11-21 05:00:00 -- -- -- -- -- -- -- -- --
2019-11-21 04:00:00 -- -- -- -- -- -- -- -- --
2019-11-21 03:00:00 -- -- -- -- -- -- -- -- --
2019-11-21 02:00:00 -- -- -- -- -- -- -- -- --
2019-11-21 01:00:00 -- -- -- -- -- -- -- -- --
2019-11-21 00:00:00 -- -- -- -- -- -- -- -- --
2019-11-20 23:00:00 -- -- -- -- -- -- -- -- --
2019-11-20 22:00:00 -- -- -- -- -- -- -- -- --
2019-11-20 21:00:00 -- -- -- -- -- -- -- -- --
2019-11-20 20:00:00 -- -- -- -- -- -- -- -- --
2019-11-20 19:00:00 11.2 9 Sudoeste 26 Sudoeste 0 -- -- 69
2019-11-20 18:00:00 11.8 18 Oeste 32 Oeste 0 -- -- 65
2019-11-20 17:00:00 12.4 15 Sudoeste 26 Oeste 0 -- -- 65
2019-11-20 16:00:00 13 20 Oeste 31 Oeste 0 -- -- 62
2019-11-20 15:00:00 13.4 18 Oeste 36 Sudoeste 0 -- -- 61
2019-11-20 14:00:00 13.8 18 Oeste 34 Oeste 0 -- -- 59
2019-11-20 13:00:00 14 11 Sudoeste 28 Sudoeste 0 -- -- 57
2019-11-20 12:00:00 12.9 10 Sudoeste 23 Sudoeste 0 -- -- 65
2019-11-20 11:00:00 10.9 6 Sudoeste 15 Sudoeste 0 -- -- 75
2019-11-20 10:00:00 9.4 10 Sudoeste 15 Oeste 0 -- -- 78
2019-11-20 09:00:00 7.9 8 Sudoeste 16 Sudoeste 0 -- -- 80
2019-11-20 08:00:00 6.9 9 Sudoeste 13 Sudoeste 0 -- -- 82
2019-11-20 07:00:00 6.2 8 Sudoeste 12 Sudoeste 0 -- -- 85
2019-11-20 06:00:00 6.3 4 Sur 9 Sudoeste 0 -- -- 85
2019-11-20 05:00:00 5.7 5 Sudoeste 9 Sudoeste 0 -- -- 89
2019-11-20 04:00:00 4.7 6 Sudoeste 9 Sudoeste 0 -- -- 97
2019-11-20 03:00:00 4.4 7 Sudoeste 9 Sudoeste 0 -- -- 98
2019-11-20 02:00:00 4 7 Sudoeste 11 Sudoeste 0 -- -- 99
2019-11-20 01:00:00 4.3 8 Sudoeste 12 Oeste 0 -- -- 100
2019-11-20 00:00:00 4.3 8 Sudoeste 10 Sudoeste 0 -- -- 100
2019-11-19 23:00:00 4.6 8 Sudoeste 12 Sudoeste 0 -- -- 99
2019-11-19 22:00:00 5 6 Sudoeste 9 Sudoeste 0 -- -- 99
2019-11-19 21:00:00 5.8 6 Sudoeste 8 Sudoeste 0 -- -- 98
2019-11-19 20:00:00 6.4 4 Oeste 6 Oeste 0 -- -- 96
2019-11-19 19:00:00 7.9 0 Calma 4 Sur 0 -- -- 91
2019-11-19 18:00:00 9.1 3 Norte 6 Noroeste 0 -- -- 85
2019-11-19 17:00:00 11.1 3 Norte 9 Sudeste 0 -- -- 78
2019-11-19 16:00:00 13.8 4 Sur 9 Sur 0 -- -- 64
2019-11-19 15:00:00 13.8 4 Sur 9 Sur 0 -- -- 65
2019-11-19 14:00:00 13.7 3 Sur 7 Sur 0 -- -- 69
2019-11-19 13:00:00 12.4 3 Oeste 8 Oeste 0 -- -- 84
2019-11-19 12:00:00 10.3 4 Sudoeste 12 Oeste 0 -- -- 100
2019-11-19 11:00:00 8 7 Sudoeste 12 Oeste 0 -- -- 100
2019-11-19 10:00:00 6 5 Sudoeste 12 Sudoeste 0.2 -- -- 100
2019-11-19 09:00:00 4.8 7 Sudoeste 12 Sudoeste 0 -- -- 100
2019-11-19 08:00:00 4.8 3 Sudoeste 12 Oeste 0 -- -- 100
2019-11-19 07:00:00 5.1 5 Sudoeste 12 Sudoeste 0 -- -- 100
2019-11-19 06:00:00 4.9 6 Oeste 8 Sudoeste 0 -- -- 100
2019-11-19 05:00:00 5.9 3 Oeste 10 Sudoeste 0 -- -- 100
2019-11-19 04:00:00 6.6 4 Sudoeste 9 Sudoeste 0 -- -- 100
2019-11-19 03:00:00 6.8 6 Oeste 9 Oeste 0.2 -- -- 100
2019-11-19 02:00:00 7.1 3 Sudoeste 6 Oeste 0.6 -- -- 100
2019-11-19 01:00:00 7.1 3 Sudoeste 10 Sudoeste 0 -- -- 100
2019-11-19 00:00:00 7.2 7 Sudoeste 12 Sudoeste 0.2 -- -- 100
2019-11-18 23:00:00 7.1 5 Sudoeste 8 Sudoeste 0 -- -- 100
2019-11-18 22:00:00 7.1 2 Sudoeste 6 Sudoeste 0.8 -- -- 100
2019-11-18 21:00:00 7 5 Sur 8 Sudoeste 0 -- -- 100
2019-11-18 20:00:00 7.5 4 Sudoeste 8 Sudoeste 0.2 -- -- 100
2019-11-18 19:00:00 7.8 3 Sudoeste 7 Sur 0.4 -- -- 99
2019-11-18 18:00:00 8.1 2 Sudoeste 8 Sudoeste 0 -- -- 98
2019-11-18 17:00:00 8.9 5 Sudoeste 8 Sudoeste 0 -- -- 97
2019-11-18 16:00:00 9.4 4 Oeste 5 Oeste 0 -- -- 93
2019-11-18 15:00:00 10.8 0 Calma 5 Sudoeste 0.4 -- -- 85
2019-11-18 14:00:00 9.9 4 Noroeste 9 Noroeste 0 -- -- 89
2019-11-18 13:00:00 9.1 0 Calma 15 Sudeste 1.2 -- -- 94
2019-11-18 12:00:00 9.3 10 Sudeste 15 Sudeste 0 -- -- 95
2019-11-18 11:00:00 7.7 3 Norte 12 Sudeste 0 -- -- 100
2019-11-18 10:00:00 6.6 3 Sur 7 Sudoeste 0 -- -- 100
2019-11-18 09:00:00 5.9 3 Noroeste 6 Sudoeste 0.2 -- -- 100
2019-11-18 08:00:00 5.9 5 Sudoeste 9 Sudoeste 0.2 -- -- 100
2019-11-18 07:00:00 6.3 4 Sudoeste 13 Sudoeste 0.2 -- -- 100
2019-11-18 06:00:00 6.8 4 Sudoeste 19 Norte 0.6 -- -- 99
2019-11-18 05:00:00 7.3 9 Oeste 15 Oeste 0.2 -- -- 100
2019-11-18 04:00:00 7.5 2 Oeste 8 Sudoeste 0 -- -- 100
2019-11-18 03:00:00 7.7 3 Sudoeste 15 Oeste 0.2 -- -- 100
2019-11-18 02:00:00 7.6 9 Oeste 17 Norte 0.4 -- -- 100
2019-11-18 01:00:00 8 5 Noroeste 11 Noroeste 1.4 -- -- 100
2019-11-18 00:00:00 8 2 Noroeste 9 Sudeste 2.6 -- -- 100
2019-11-17 23:00:00 8.1 4 Sudoeste 9 Sudoeste 1.4 -- -- 99
2019-11-17 22:00:00 8.4 4 Sudoeste 12 Sudoeste 1 -- -- 98
2019-11-17 21:00:00 8.8 12 Norte 21 Norte 1 -- -- 95
2019-11-17 20:00:00 8.8 5 Oeste 13 Sudoeste 0.2 -- -- 95
2019-11-17 19:00:00 9 6 Sudoeste 17 Sudoeste 0.2 -- -- 94
2019-11-17 18:00:00 9.6 7 Sudoeste 28 Oeste 0.4 -- -- 91
2019-11-17 17:00:00 10.4 5 Sudoeste 33 Oeste 1 -- -- 91
2019-11-17 16:00:00 10.5 5 Sudoeste 32 Norte 2.6 -- -- 93
2019-11-17 15:00:00 10.9 8 Sudoeste 31 Oeste 0.4 -- -- 95
2019-11-17 14:00:00 10.4 7 Sudoeste 13 Sudoeste 0.6 -- -- 98
2019-11-17 13:00:00 8.8 10 Sudoeste 25 Oeste 3.8 -- -- 98
2019-11-17 12:00:00 9.2 7 Oeste 18 Oeste 1.2 -- -- 96
2019-11-17 11:00:00 8.6 4 Sudoeste 14 Sudoeste 0.6 -- -- 99
2019-11-17 10:00:00 7.8 5 Sudoeste 11 Sur 1.2 -- -- 99
2019-11-17 09:00:00 7.6 4 Sudoeste 10 Sudoeste 0 -- -- 99
2019-11-17 08:00:00 7.3 8 Sudoeste 14 Oeste 0 -- -- 99
2019-11-17 07:00:00 7.3 8 Sudoeste 13 Sudoeste 0.2 -- -- 99
2019-11-17 06:00:00 7.2 7 Sudoeste 11 Sudoeste 0.4 -- -- 99
2019-11-17 05:00:00 7.1 8 Sudoeste 12 Sudoeste 0.2 -- -- 99
2019-11-17 04:00:00 7 6 Oeste 18 Sudoeste 0.4 -- -- 99
2019-11-17 03:00:00 7.1 10 Sudoeste 17 Sudoeste 0.8 -- -- 98
2019-11-17 02:00:00 7.2 9 Sudoeste 15 Sudoeste 0.4 -- -- 97
2019-11-17 01:00:00 7 11 Sudoeste 18 Sudoeste 0 -- -- 97
2019-11-17 00:00:00 7.2 9 Sudoeste 26 Noroeste 0.6 -- -- 94
2019-11-16 23:00:00 8 12 Oeste 36 Noroeste 1.6 -- -- 91
2019-11-16 22:00:00 8.3 18 Noroeste 46 Norte 0 -- -- 86
2019-11-16 21:00:00 7.5 9 Oeste 18 Oeste 0.6 -- -- 90
2019-11-16 20:00:00 8.2 14 Oeste 35 Oeste 0.6 -- -- 90
2019-11-16 19:00:00 8.7 12 Oeste 45 Oeste 0.6 -- -- 88
2019-11-16 18:00:00 7.9 16 Oeste 31 Oeste 1.2 -- -- 97
2019-11-16 17:00:00 8.3 14 Noroeste 44 Oeste 2.4 -- -- 94
2019-11-16 16:00:00 8.6 13 Oeste 37 Oeste 4.2 -- -- 95
2019-11-16 15:00:00 8.6 13 Oeste 29 Oeste 0.2 -- -- 98
2019-11-16 14:00:00 7.2 9 Sudoeste 27 Sudoeste 3.6 -- -- 100
2019-11-16 13:00:00 6.5 16 Sudoeste 30 Sudoeste 4.4 -- -- 100
2019-11-16 12:00:00 6.8 12 Sudoeste 26 Sudoeste 6.4 -- -- 100
2019-11-16 11:00:00 6.5 11 Sudoeste 19 Sudoeste 6 -- -- 99
2019-11-16 10:00:00 5.9 12 Sudoeste 26 Sudoeste 4.8 -- -- 98
2019-11-16 09:00:00 5.5 12 Sudoeste 21 Sudoeste 0.8 -- -- 96
2019-11-16 08:00:00 4.9 10 Sudoeste 18 Sudoeste 0 -- -- 95
2019-11-16 07:00:00 4 13 Sudoeste 18 Sudoeste 0.2 -- -- 99
2019-11-16 06:00:00 3.3 13 Sudoeste 20 Oeste 0 -- -- 100
2019-11-16 05:00:00 2.8 13 Sudoeste 16 Sudoeste 0 -- -- 100
2019-11-16 04:00:00 2.1 8 Sudoeste 16 Sudoeste 0 -- -- 100
2019-11-16 03:00:00 2.4 7 Sudoeste 10 Sudoeste 0 -- -- 100
2019-11-16 02:00:00 2.8 6 Sur 12 Sudoeste 0 -- -- 100
2019-11-16 01:00:00 3.3 5 Oeste 12 Sudoeste 0 -- -- 99
2019-11-16 00:00:00 4.1 3 Oeste 7 Sudoeste 0 -- -- 99
2019-11-15 23:00:00 4.6 4 Sudoeste 8 Sudoeste 0 -- -- 99
2019-11-15 22:00:00 5.2 6 Sur 10 Sur 0 -- -- 99
2019-11-15 21:00:00 5.7 4 Sudoeste 11 Sudoeste 0 -- -- 99
2019-11-15 20:00:00 6 6 Sudoeste 13 Oeste 1.8 -- -- 99
2019-11-15 19:00:00 6.4 9 Sudoeste 13 Sudoeste 3.2 -- -- 97
2019-11-15 18:00:00 6.9 9 Sudoeste 30 Noroeste 1 -- -- 94
2019-11-15 17:00:00 7.4 17 Oeste 42 Noroeste 1.2 -- -- 89
2019-11-15 16:00:00 8 21 Noroeste 36 Noroeste 0 -- -- 87
2019-11-15 15:00:00 9 3 Oeste 28 Nordeste 1.2 -- -- 90
2019-11-15 14:00:00 11 14 Nordeste 37 Nordeste 0 -- -- 74
2019-11-15 13:00:00 10.4 8 Nordeste 19 Nordeste 0 -- -- 78
2019-11-15 12:00:00 9.9 12 Nordeste 34 Nordeste 0 -- -- 80
2019-11-15 11:00:00 8.8 19 Nordeste 39 Nordeste 1.2 -- -- 88
2019-11-15 10:00:00 9 19 Nordeste 42 Nordeste 0.8 -- -- 92
2019-11-15 09:00:00 6.8 13 Oeste 26 Oeste 1 -- -- 98
2019-11-15 08:00:00 5.8 19 Oeste 27 Noroeste 2.2 -- -- 98
2019-11-15 07:00:00 5.8 13 Sudoeste 24 Sudoeste 2.6 -- -- 98
2019-11-15 06:00:00 6 9 Sudoeste 18 Oeste 3.6 -- -- 97
2019-11-15 05:00:00 6.1 8 Sudoeste 27 Oeste 1 -- -- 93
2019-11-15 04:00:00 5.8 8 Sudoeste 19 Sudoeste 0.4 -- -- 94
2019-11-15 03:00:00 5.8 10 Sudoeste 15 Oeste 0.8 -- -- 93
2019-11-15 02:00:00 5.5 10 Sudoeste 15 Sudoeste 0 -- -- 92
2019-11-15 01:00:00 5.6 10 Sudoeste 17 Sudoeste 0 -- -- 91
2019-11-15 00:00:00 5.6 8 Sudoeste 14 Oeste 0 -- -- 93